Time;durP1;ratioP1;P1;durP2;ratioP2;P2;SDS_P1;SDS_P2;PMS_P1;PMS_P2;Temp;Humidity;BMP_temperature;BMP_pressure;BME280_temperature;BME280_humidity;BME280_pressure;Samples;Min_cycle;Max_cycle;Signal;HPM_P1;HPM_P2
2022/10/20 00:01:16;;;;;;;6.13;3.63;;;;;;;;;;5090650;28;20078;-85
2022/10/20 00:03:42;;;;;;;6.13;3.28;;;;;;;;;;5089970;28;20028;-86
2022/10/20 00:06:17;;;;;;;6.28;4.38;;;;;;;;;;5091930;28;20115;-85
2022/10/20 00:08:43;;;;;;;4.15;2.97;;;;;;;;;;5089229;28;20032;-85
2022/10/20 00:11:10;;;;;;;6.80;3.67;;;;;;;;;;5091901;28;20032;-86
2022/10/20 00:13:37;;;;;;;7.00;3.85;;;;;;;;;;5091101;28;20063;-85
2022/10/20 00:16:03;;;;;;;4.25;3.20;;;;;;;;;;5091494;28;20027;-87
2022/10/20 00:18:29;;;;;;;6.20;3.90;;;;;;;;;;5091792;28;20043;-87
2022/10/20 00:20:54;;;;;;;6.07;4.13;;;;;;;;;;5091377;28;20102;-87
2022/10/20 00:23:20;;;;;;;5.72;3.95;;;;;;;;;;5090505;28;20549;-85
2022/10/20 00:25:46;;;;;;;5.35;3.58;;;;;;;;;;5091588;28;20042;-85
2022/10/20 00:28:11;;;;;;;5.50;3.92;;;;;;;;;;5095382;28;20093;-84
2022/10/20 00:30:37;;;;;;;6.43;4.20;;;;;;;;;;5091364;28;20435;-88
2022/10/20 00:33:03;;;;;;;5.28;3.50;;;;;;;;;;5089789;28;20531;-88
2022/10/20 00:35:30;;;;;;;6.22;3.25;;;;;;;;;;5091316;28;20142;-85
2022/10/20 00:37:56;;;;;;;5.00;3.28;;;;;;;;;;5091362;28;20079;-86
2022/10/20 00:40:22;;;;;;;7.03;3.90;;;;;;;;;;5092029;28;20821;-87
2022/10/20 00:42:49;;;;;;;4.72;3.10;;;;;;;;;;5090167;28;20500;-86
2022/10/20 00:45:20;;;;;;;4.40;2.92;;;;;;;;;;5089783;28;20042;-85
2022/10/20 00:47:45;;;;;;;6.70;3.60;;;;;;;;;;5091409;28;20073;-84
2022/10/20 00:50:38;;;;;;;4.80;3.35;;;;;;;;;;5089213;28;20396;-84
2022/10/20 00:53:04;;;;;;;7.90;4.10;;;;;;;;;;5089310;28;20359;-88
2022/10/20 00:55:32;;;;;;;5.82;4.18;;;;;;;;;;5090104;28;20032;-86
2022/10/20 00:57:59;;;;;;;5.07;3.55;;;;;;;;;;5090200;28;20051;-84
2022/10/20 01:00:26;;;;;;;4.57;2.78;;;;;;;;;;5090655;28;20119;-88
2022/10/20 01:02:55;;;;;;;3.65;2.92;;;;;;;;;;5090065;28;20035;-86
2022/10/20 01:05:21;;;;;;;4.43;3.08;;;;;;;;;;5087628;28;20043;-87
2022/10/20 01:07:46;;;;;;;5.40;3.42;;;;;;;;;;5092650;28;20027;-84
2022/10/20 01:10:13;;;;;;;5.90;2.78;;;;;;;;;;5091190;28;20016;-86
2022/10/20 01:13:05;;;;;;;9.18;3.85;;;;;;;;;;5089436;28;20073;-84
2022/10/20 01:15:43;;;;;;;4.80;3.38;;;;;;;;;;5089440;28;20039;-87
2022/10/20 01:18:21;;;;;;;5.65;3.72;;;;;;;;;;5090321;28;20028;-85
2022/10/20 01:20:59;;;;;;;6.30;3.83;;;;;;;;;;5089824;28;20033;-82
2022/10/20 01:23:34;;;;;;;3.28;2.50;;;;;;;;;;5088242;28;20426;-85
2022/10/20 01:26:11;;;;;;;7.00;3.40;;;;;;;;;;5092018;28;20016;-87
2022/10/20 01:28:55;;;;;;;6.65;3.88;;;;;;;;;;5091289;28;20019;-86
2022/10/20 01:31:47;;;;;;;4.85;3.08;;;;;;;;;;5093270;28;20027;-88
2022/10/20 01:34:34;;;;;;;4.95;3.22;;;;;;;;;;5090080;28;20062;-84
2022/10/20 01:37:15;;;;;;;5.97;3.38;;;;;;;;;;5094159;28;20103;-84
2022/10/20 01:39:59;;;;;;;2.38;1.88;;;;;;;;;;5089497;28;20801;-87
2022/10/20 01:42:28;;;;;;;3.55;2.75;;;;;;;;;;5089417;28;20380;-85
2022/10/20 01:44:58;;;;;;;4.32;3.13;;;;;;;;;;5089728;28;20113;-84
2022/10/20 01:47:26;;;;;;;2.60;1.95;;;;;;;;;;5091483;28;20052;-85
2022/10/20 01:49:52;;;;;;;3.72;2.42;;;;;;;;;;5093798;28;20357;-85
2022/10/20 01:52:20;;;;;;;6.22;2.83;;;;;;;;;;5085606;28;20383;-83
2022/10/20 01:54:45;;;;;;;4.15;2.42;;;;;;;;;;5093685;28;21494;-86
2022/10/20 01:57:58;;;;;;;4.70;3.63;;;;;;;;;;5090881;28;20024;-85
2022/10/20 02:00:24;;;;;;;2.78;2.47;;;;;;;;;;5047468;28;20558;-90
2022/10/20 02:03:24;;;;;;;3.85;3.03;;;;;;;;;;5085196;28;20063;-88
2022/10/20 02:06:02;;;;;;;3.20;2.20;;;;;;;;;;5092289;28;20115;-88
2022/10/20 02:08:38;;;;;;;4.07;2.85;;;;;;;;;;5090493;28;20024;-85
2022/10/20 02:11:06;;;;;;;4.35;3.28;;;;;;;;;;5091013;28;20471;-88
2022/10/20 02:13:36;;;;;;;3.95;2.90;;;;;;;;;;5091489;28;20034;-87
2022/10/20 02:16:08;;;;;;;3.63;2.47;;;;;;;;;;5089700;28;20445;-86
2022/10/20 02:18:39;;;;;;;6.28;3.28;;;;;;;;;;5085944;28;20032;-85
2022/10/20 02:21:05;;;;;;;5.40;2.85;;;;;;;;;;5091309;28;20418;-85
2022/10/20 02:23:35;;;;;;;6.88;3.90;;;;;;;;;;5093629;28;20077;-87
2022/10/20 02:26:04;;;;;;;4.82;2.92;;;;;;;;;;5092378;28;20333;-86
2022/10/20 02:28:31;;;;;;;5.03;3.60;;;;;;;;;;5090539;28;20050;-86
2022/10/20 02:30:57;;;;;;;4.70;3.28;;;;;;;;;;5093547;28;20031;-88
2022/10/20 02:33:22;;;;;;;6.32;3.95;;;;;;;;;;5092760;28;20157;-86
2022/10/20 02:35:54;;;;;;;6.88;3.75;;;;;;;;;;5092968;28;20042;-86
2022/10/20 02:38:20;;;;;;;7.95;3.72;;;;;;;;;;5092212;28;20035;-87
2022/10/20 02:40:45;;;;;;;6.00;3.67;;;;;;;;;;5090837;28;20020;-86
2022/10/20 02:43:11;;;;;;;5.13;2.75;;;;;;;;;;5092648;28;20467;-84
2022/10/20 02:45:36;;;;;;;4.50;3.20;;;;;;;;;;5091979;28;20028;-83
2022/10/20 02:48:02;;;;;;;5.45;2.70;;;;;;;;;;5089860;28;20458;-82
2022/10/20 02:50:27;;;;;;;4.28;3.17;;;;;;;;;;5091298;28;20035;-87
2022/10/20 02:52:53;;;;;;;4.88;3.17;;;;;;;;;;5091887;28;20024;-87
2022/10/20 02:55:18;;;;;;;3.25;2.83;;;;;;;;;;5092672;28;20024;-86
2022/10/20 02:57:43;;;;;;;6.70;3.20;;;;;;;;;;5091288;28;20043;-85
2022/10/20 03:00:09;;;;;;;5.18;3.30;;;;;;;;;;5092837;28;20378;-85
2022/10/20 03:02:35;;;;;;;5.57;2.78;;;;;;;;;;5091114;28;20028;-84
2022/10/20 03:05:00;;;;;;;6.30;3.15;;;;;;;;;;5092710;28;20032;-85
2022/10/20 03:07:26;;;;;;;3.75;2.55;;;;;;;;;;5092258;28;20487;-84
2022/10/20 03:09:51;;;;;;;3.50;2.75;;;;;;;;;;5091661;28;20054;-84
2022/10/20 03:12:17;;;;;;;5.22;3.20;;;;;;;;;;5091540;28;20464;-84
2022/10/20 03:14:42;;;;;;;4.93;2.97;;;;;;;;;;5087274;28;20042;-83
2022/10/20 03:17:08;;;;;;;5.68;3.72;;;;;;;;;;5088096;28;20017;-86
2022/10/20 03:19:34;;;;;;;4.30;3.35;;;;;;;;;;5091653;28;20502;-85
2022/10/20 03:21:59;;;;;;;3.17;2.58;;;;;;;;;;5092344;28;20032;-87
2022/10/20 03:24:24;;;;;;;6.20;3.50;;;;;;;;;;5091352;28;20405;-84
2022/10/20 03:26:50;;;;;;;5.00;2.85;;;;;;;;;;5091245;28;20016;-85
2022/10/20 03:29:15;;;;;;;5.55;2.88;;;;;;;;;;5089171;28;20036;-85
2022/10/20 03:31:41;;;;;;;4.90;3.17;;;;;;;;;;5092320;28;20043;-85
2022/10/20 03:34:06;;;;;;;3.75;2.80;;;;;;;;;;5092315;28;20089;-84
2022/10/20 03:36:31;;;;;;;4.95;3.40;;;;;;;;;;5092371;28;20039;-86
2022/10/20 03:38:57;;;;;;;3.45;2.53;;;;;;;;;;5091173;28;20450;-84
2022/10/20 03:41:22;;;;;;;4.35;2.60;;;;;;;;;;5091833;28;20024;-86
2022/10/20 03:43:47;;;;;;;4.45;3.45;;;;;;;;;;5091615;28;20032;-84
2022/10/20 03:46:13;;;;;;;5.80;3.28;;;;;;;;;;5086561;28;20048;-86
2022/10/20 03:48:39;;;;;;;3.75;2.95;;;;;;;;;;5091743;28;20383;-84
2022/10/20 03:51:05;;;;;;;5.43;3.55;;;;;;;;;;5088310;28;20060;-85
2022/10/20 03:53:31;;;;;;;5.57;3.42;;;;;;;;;;5089172;28;20028;-88
2022/10/20 03:55:57;;;;;;;4.38;2.97;;;;;;;;;;5090798;28;20379;-83
2022/10/20 03:58:23;;;;;;;2.92;2.38;;;;;;;;;;5091803;28;20028;-85
2022/10/20 04:00:48;;;;;;;5.88;3.17;;;;;;;;;;5089758;28;20028;-84
2022/10/20 04:03:14;;;;;;;6.72;3.65;;;;;;;;;;5090974;28;20055;-88
2022/10/20 04:05:39;;;;;;;5.15;2.65;;;;;;;;;;5090745;28;20031;-87
2022/10/20 04:08:05;;;;;;;4.47;2.28;;;;;;;;;;5091896;28;20027;-86
2022/10/20 04:10:31;;;;;;;6.78;3.47;;;;;;;;;;5090591;28;20034;-86
2022/10/20 04:13:00;;;;;;;3.15;2.35;;;;;;;;;;5091696;28;20028;-88
2022/10/20 04:15:25;;;;;;;6.53;3.70;;;;;;;;;;5090977;28;20020;-86
2022/10/20 04:17:51;;;;;;;3.33;2.17;;;;;;;;;;5085657;28;20438;-86
2022/10/20 04:20:16;;;;;;;6.20;2.08;;;;;;;;;;5087193;28;20027;-85
2022/10/20 04:22:41;;;;;;;4.53;2.42;;;;;;;;;;5087624;28;20040;-87
2022/10/20 04:25:07;;;;;;;5.38;2.22;;;;;;;;;;5088132;28;20029;-83
2022/10/20 04:27:33;;;;;;;3.88;2.45;;;;;;;;;;5087969;28;20067;-83
2022/10/20 04:29:58;;;;;;;4.32;2.50;;;;;;;;;;5090071;28;20479;-86
2022/10/20 04:32:24;;;;;;;4.18;2.50;;;;;;;;;;5088225;28;20100;-85
2022/10/20 04:34:49;;;;;;;3.75;2.72;;;;;;;;;;5084105;28;20185;-85
2022/10/20 04:37:15;;;;;;;3.33;1.75;;;;;;;;;;5088472;28;20035;-84
2022/10/20 04:39:40;;;;;;;2.22;1.83;;;;;;;;;;5086339;28;20105;-84
2022/10/20 04:42:05;;;;;;;4.50;2.80;;;;;;;;;;5089743;28;20020;-84
2022/10/20 04:44:31;;;;;;;3.25;1.95;;;;;;;;;;5089528;28;20031;-83
2022/10/20 04:46:56;;;;;;;2.40;1.65;;;;;;;;;;5082992;28;20032;-85
2022/10/20 04:49:22;;;;;;;3.78;2.67;;;;;;;;;;5084355;28;20088;-83
2022/10/20 04:51:47;;;;;;;2.78;2.22;;;;;;;;;;5090993;28;20364;-82
2022/10/20 04:54:13;;;;;;;3.15;1.73;;;;;;;;;;5095369;28;20027;-87
2022/10/20 04:56:38;;;;;;;2.88;1.92;;;;;;;;;;5093215;28;20036;-87
2022/10/20 04:59:04;;;;;;;3.05;1.85;;;;;;;;;;5093562;28;20093;-83
2022/10/20 05:01:30;;;;;;;3.88;1.77;;;;;;;;;;5089512;28;20021;-83
2022/10/20 05:03:56;;;;;;;3.13;2.38;;;;;;;;;;5087790;28;20029;-84
2022/10/20 05:06:25;;;;;;;3.92;1.83;;;;;;;;;;5090958;28;20089;-85
2022/10/20 05:08:52;;;;;;;4.03;2.17;;;;;;;;;;5092998;28;20028;-90
2022/10/20 05:11:19;;;;;;;3.58;2.15;;;;;;;;;;5094914;28;20523;-83
2022/10/20 05:13:45;;;;;;;1.77;1.38;;;;;;;;;;5092387;28;20107;-82
2022/10/20 05:16:11;;;;;;;4.13;2.58;;;;;;;;;;5090831;28;20135;-83
2022/10/20 05:18:38;;;;;;;3.33;2.55;;;;;;;;;;5093166;28;20027;-82
2022/10/20 05:21:05;;;;;;;2.00;1.50;;;;;;;;;;5093411;28;20990;-83
2022/10/20 05:23:30;;;;;;;3.42;1.98;;;;;;;;;;5090035;28;20559;-84
2022/10/20 05:25:56;;;;;;;3.20;2.47;;;;;;;;;;5093551;28;20107;-84
2022/10/20 05:28:21;;;;;;;5.28;2.58;;;;;;;;;;5092739;28;20059;-84
2022/10/20 05:30:48;;;;;;;4.30;2.72;;;;;;;;;;5089410;28;20027;-82
2022/10/20 05:33:13;;;;;;;2.63;2.10;;;;;;;;;;5091283;28;20430;-83
2022/10/20 05:35:38;;;;;;;2.95;2.13;;;;;;;;;;5091702;28;20077;-84
2022/10/20 05:38:04;;;;;;;3.53;2.80;;;;;;;;;;5091802;28;20032;-83
2022/10/20 05:40:29;;;;;;;4.65;2.53;;;;;;;;;;5093618;28;20032;-87
2022/10/20 05:42:56;;;;;;;4.15;2.53;;;;;;;;;;5091478;28;20051;-86
2022/10/20 05:45:21;;;;;;;3.20;1.77;;;;;;;;;;5094551;28;20035;-86
2022/10/20 05:47:47;;;;;;;2.88;2.08;;;;;;;;;;5094302;28;20024;-87
2022/10/20 05:50:12;;;;;;;6.60;2.95;;;;;;;;;;5094192;28;20038;-87
2022/10/20 05:52:38;;;;;;;7.65;4.40;;;;;;;;;;5088218;28;20020;-87
2022/10/20 05:55:03;;;;;;;3.55;2.63;;;;;;;;;;5091615;28;20387;-86
2022/10/20 05:57:29;;;;;;;2.55;1.70;;;;;;;;;;5093140;28;20034;-86
2022/10/20 05:59:54;;;;;;;5.18;2.25;;;;;;;;;;5092840;28;20048;-86
2022/10/20 06:02:21;;;;;;;5.95;2.35;;;;;;;;;;5091112;28;20016;-86
2022/10/20 06:04:46;;;;;;;2.63;1.83;;;;;;;;;;5091128;28;20085;-86
2022/10/20 06:07:11;;;;;;;4.55;2.20;;;;;;;;;;5091546;28;20032;-89
2022/10/20 06:09:38;;;;;;;3.80;2.60;;;;;;;;;;5093899;28;20028;-87
2022/10/20 06:12:04;;;;;;;3.53;2.63;;;;;;;;;;5092505;28;20047;-89
2022/10/20 06:14:29;;;;;;;5.47;2.78;;;;;;;;;;5092817;28;20036;-85
2022/10/20 06:16:55;;;;;;;6.85;2.70;;;;;;;;;;5089484;28;20031;-85
2022/10/20 06:19:22;;;;;;;4.38;2.75;;;;;;;;;;5093307;28;20035;-88
2022/10/20 06:21:48;;;;;;;2.90;2.10;;;;;;;;;;5092445;28;20052;-87
2022/10/20 06:24:15;;;;;;;2.50;2.15;;;;;;;;;;5092704;28;20520;-89
2022/10/20 06:26:43;;;;;;;3.80;2.63;;;;;;;;;;5095267;28;20054;-90
2022/10/20 06:29:12;;;;;;;3.05;2.22;;;;;;;;;;5093414;28;20027;-89
2022/10/20 06:32:27;;;;;;;3.30;2.25;;;;;;;;;;5092661;28;20028;-86
2022/10/20 06:35:02;;;;;;;6.82;2.45;;;;;;;;;;5089711;28;20387;-89
2022/10/20 06:37:31;;;;;;;4.13;2.72;;;;;;;;;;5092129;28;20483;-86
2022/10/20 06:39:56;;;;;;;3.22;2.15;;;;;;;;;;5091788;28;20051;-87
2022/10/20 06:42:22;;;;;;;3.53;1.67;;;;;;;;;;5093571;28;20048;-87
2022/10/20 06:45:01;;;;;;;2.08;1.88;;;;;;;;;;5094968;28;20475;-86
2022/10/20 06:47:34;;;;;;;1.42;1.33;;;;;;;;;;5092700;28;20032;-88
2022/10/20 06:50:05;;;;;;;3.72;2.35;;;;;;;;;;5089994;28;20036;-86
2022/10/20 06:52:30;;;;;;;3.97;2.85;;;;;;;;;;5090569;28;20104;-86
2022/10/20 06:54:56;;;;;;;3.80;2.55;;;;;;;;;;5106354;28;20110;-85
2022/10/20 06:57:21;;;;;;;3.50;2.70;;;;;;;;;;5093067;28;20035;-86
2022/10/20 06:59:47;;;;;;;3.53;2.10;;;;;;;;;;5094780;28;20038;-85
2022/10/20 07:02:12;;;;;;;3.53;2.78;;;;;;;;;;5093959;28;20028;-88
2022/10/20 07:04:38;;;;;;;4.65;2.72;;;;;;;;;;5091527;28;20024;-90
2022/10/20 07:07:08;;;;;;;4.60;2.65;;;;;;;;;;5093452;28;20396;-88
2022/10/20 07:14:22;;;;;;;;;;;;;;;;;;;;;
2022/10/20 07:16:29;;;;;;;2.53;1.85;;;;;;;;;;5074146;28;20043;-87
2022/10/20 07:19:27;;;;;;;8.32;4.00;;;;;;;;;;5092010;28;20456;-86
2022/10/20 07:21:53;;;;;;;2.33;1.90;;;;;;;;;;5090834;28;20040;-86
2022/10/20 07:24:38;;;;;;;3.40;2.65;;;;;;;;;;5090770;28;20054;-88
2022/10/20 07:27:14;;;;;;;2.80;1.88;;;;;;;;;;5091983;28;20024;-87
2022/10/20 07:29:42;;;;;;;4.93;2.33;;;;;;;;;;5087378;28;20107;-86
2022/10/20 07:32:08;;;;;;;2.65;2.08;;;;;;;;;;5091864;28;20459;-86
2022/10/20 07:34:33;;;;;;;4.70;3.00;;;;;;;;;;5091488;28;20086;-85
2022/10/20 07:36:59;;;;;;;5.78;3.78;;;;;;;;;;5091122;28;20023;-86
2022/10/20 07:39:24;;;;;;;3.88;2.00;;;;;;;;;;5092572;28;20054;-87
2022/10/20 07:41:50;;;;;;;5.13;2.45;;;;;;;;;;5094148;28;20017;-85
2022/10/20 07:44:16;;;;;;;4.78;2.75;;;;;;;;;;5092176;28;20036;-85
2022/10/20 07:46:42;;;;;;;2.75;2.42;;;;;;;;;;5091999;28;20080;-85
2022/10/20 07:49:10;;;;;;;3.05;2.40;;;;;;;;;;5091827;28;20102;-87
2022/10/20 07:51:38;;;;;;;3.70;2.10;;;;;;;;;;5090290;28;20040;-88
2022/10/20 07:54:10;;;;;;;3.75;2.22;;;;;;;;;;5091448;28;20601;-87
2022/10/20 07:57:15;;;;;;;2.75;2.40;;;;;;;;;;5091411;28;20019;-86
2022/10/20 08:00:07;;;;;;;3.80;2.22;;;;;;;;;;5091134;28;20092;-88
2022/10/20 08:02:36;;;;;;;4.60;2.45;;;;;;;;;;5060061;28;20476;-85
2022/10/20 08:05:01;;;;;;;5.65;1.98;;;;;;;;;;5115606;27;20379;-88
2022/10/20 08:07:27;;;;;;;2.92;2.13;;;;;;;;;;5090694;28;20031;-87
2022/10/20 08:09:52;;;;;;;5.25;2.55;;;;;;;;;;5093614;28;20024;-85
2022/10/20 08:12:17;;;;;;;2.50;1.83;;;;;;;;;;5093106;28;20464;-83
2022/10/20 08:14:43;;;;;;;3.78;2.20;;;;;;;;;;5089438;28;20122;-86
2022/10/20 08:17:09;;;;;;;4.25;2.17;;;;;;;;;;5088240;28;20490;-85
2022/10/20 08:19:34;;;;;;;4.68;2.83;;;;;;;;;;5090348;28;20141;-83
2022/10/20 08:22:00;;;;;;;4.53;2.58;;;;;;;;;;5090424;28;20043;-87
2022/10/20 08:24:25;;;;;;;2.65;1.83;;;;;;;;;;5090193;28;20035;-85
2022/10/20 08:26:51;;;;;;;2.65;2.30;;;;;;;;;;5090610;28;20031;-87
2022/10/20 08:29:16;;;;;;;3.63;1.90;;;;;;;;;;5092278;28;20527;-87
2022/10/20 08:31:43;;;;;;;2.42;1.48;;;;;;;;;;5092131;28;20024;-86
2022/10/20 08:34:08;;;;;;;4.47;2.13;;;;;;;;;;5091886;28;20023;-88
2022/10/20 08:36:36;;;;;;;2.22;1.75;;;;;;;;;;5088097;28;20433;-88
2022/10/20 08:39:01;;;;;;;3.40;2.15;;;;;;;;;;5089554;28;20432;-87
2022/10/20 08:41:32;;;;;;;5.88;2.40;;;;;;;;;;5091764;28;20107;-90
2022/10/20 08:43:59;;;;;;;3.58;2.75;;;;;;;;;;5095487;28;20029;-88
2022/10/20 08:46:42;;;;;;;3.78;2.05;;;;;;;;;;5084581;28;20031;-88
2022/10/20 08:49:20;;;;;;;2.78;1.90;;;;;;;;;;5086329;28;20046;-90
2022/10/20 08:51:45;;;;;;;4.65;2.92;;;;;;;;;;5087786;28;20020;-88
2022/10/20 08:54:14;;;;;;;4.10;2.28;;;;;;;;;;5091753;28;20487;-88
2022/10/20 08:56:40;;;;;;;1.63;1.43;;;;;;;;;;5091529;28;20024;-89
2022/10/20 08:59:28;;;;;;;2.10;1.40;;;;;;;;;;5091800;28;20081;-88
2022/10/20 09:01:54;;;;;;;2.28;1.52;;;;;;;;;;5084541;28;20074;-90
2022/10/20 09:04:33;;;;;;;2.92;1.80;;;;;;;;;;5089560;28;20024;-87
2022/10/20 09:07:04;;;;;;;1.77;1.30;;;;;;;;;;5087059;28;20031;-88
2022/10/20 09:09:31;;;;;;;4.97;2.70;;;;;;;;;;5090925;28;20086;-89
2022/10/20 09:12:04;;;;;;;2.00;1.67;;;;;;;;;;5090551;28;20107;-86
2022/10/20 09:14:33;;;;;;;3.45;1.85;;;;;;;;;;5090969;28;20024;-89
2022/10/20 09:16:59;;;;;;;2.45;1.50;;;;;;;;;;5091166;28;20040;-87
2022/10/20 09:19:26;;;;;;;1.98;1.45;;;;;;;;;;5086984;28;20067;-87
2022/10/20 09:21:56;;;;;;;2.38;1.13;;;;;;;;;;5090135;28;20464;-88
2022/10/20 09:24:23;;;;;;;1.42;1.33;;;;;;;;;;5087205;28;20059;-85
2022/10/20 09:26:50;;;;;;;2.22;1.65;;;;;;;;;;5087182;28;20468;-86
2022/10/20 09:29:18;;;;;;;2.50;1.42;;;;;;;;;;5083704;28;20020;-85
2022/10/20 09:31:51;;;;;;;2.42;1.40;;;;;;;;;;5089437;28;20462;-85
2022/10/20 09:34:19;;;;;;;2.58;1.80;;;;;;;;;;5084648;28;20024;-83
2022/10/20 09:36:45;;;;;;;2.90;1.60;;;;;;;;;;5088746;28;20463;-85
2022/10/20 09:39:20;;;;;;;2.28;1.30;;;;;;;;;;5090857;28;20468;-84
2022/10/20 09:41:46;;;;;;;1.90;0.93;;;;;;;;;;5092335;28;20043;-85
2022/10/20 09:44:24;;;;;;;2.47;1.45;;;;;;;;;;5094165;28;20106;-85
2022/10/20 09:46:52;;;;;;;3.60;1.83;;;;;;;;;;5092638;28;20029;-83
2022/10/20 09:49:37;;;;;;;1.77;0.98;;;;;;;;;;5088776;28;20023;-84
2022/10/20 09:52:18;;;;;;;1.77;1.55;;;;;;;;;;5091395;28;20493;-84
2022/10/20 09:54:49;;;;;;;1.80;1.33;;;;;;;;;;5091974;28;20031;-85
2022/10/20 09:57:19;;;;;;;1.50;1.13;;;;;;;;;;5093107;28;20024;-83
2022/10/20 09:59:48;;;;;;;1.35;1.10;;;;;;;;;;5087747;28;20073;-85
2022/10/20 10:02:13;;;;;;;1.50;1.33;;;;;;;;;;5087846;28;20085;-87
2022/10/20 10:04:43;;;;;;;1.48;1.08;;;;;;;;;;5087582;28;20036;-82
2022/10/20 10:07:30;;;;;;;3.35;1.85;;;;;;;;;;5086520;28;20035;-83
2022/10/20 10:10:00;;;;;;;2.25;1.05;;;;;;;;;;5090246;28;20032;-83
2022/10/20 10:12:27;;;;;;;1.60;1.48;;;;;;;;;;5092032;28;20020;-84
2022/10/20 10:14:54;;;;;;;2.20;1.90;;;;;;;;;;5090261;28;20031;-84
2022/10/20 10:17:38;;;;;;;4.07;1.40;;;;;;;;;;5087008;28;20028;-83
2022/10/20 10:20:10;;;;;;;3.25;1.80;;;;;;;;;;5091343;28;20020;-87
2022/10/20 10:22:35;;;;;;;3.00;1.90;;;;;;;;;;5093133;28;20079;-85
2022/10/20 10:25:01;;;;;;;1.52;1.08;;;;;;;;;;5090795;28;20055;-86
2022/10/20 10:27:35;;;;;;;3.58;1.63;;;;;;;;;;5092817;28;20027;-86
2022/10/20 10:30:33;;;;;;;1.00;0.90;;;;;;;;;;5090826;28;20020;-86
2022/10/20 10:32:59;;;;;;;1.25;1.02;;;;;;;;;;5092378;28;20479;-84
2022/10/20 10:35:43;;;;;;;2.45;1.42;;;;;;;;;;5090291;28;20020;-85
2022/10/20 10:38:11;;;;;;;3.60;1.50;;;;;;;;;;5091836;28;20028;-85
2022/10/20 10:41:02;;;;;;;2.13;1.27;;;;;;;;;;5091694;28;20020;-86
2022/10/20 10:43:42;;;;;;;1.17;0.93;;;;;;;;;;5094760;28;20120;-85
2022/10/20 10:46:15;;;;;;;0.98;0.88;;;;;;;;;;5093431;28;20035;-84
2022/10/20 10:49:01;;;;;;;5.80;3.30;;;;;;;;;;5090991;28;20459;-88
2022/10/20 11:05:39;;;;;;;2.95;1.85;;;;;;;;;;5094820;28;20454;-87
2022/10/20 11:08:24;;;;;;;1.17;0.95;;;;;;;;;;5090143;28;20024;-86
2022/10/20 11:11:21;;;;;;;1.35;1.00;;;;;;;;;;5094987;28;20024;-86
2022/10/20 11:13:50;;;;;;;1.00;0.90;;;;;;;;;;5071577;28;20372;-86
2022/10/20 11:16:30;;;;;;;1.70;1.10;;;;;;;;;;5092084;28;20024;-87
2022/10/20 11:19:11;;;;;;;2.35;1.52;;;;;;;;;;5093380;28;20028;-88
2022/10/20 11:22:27;;;;;;;2.92;1.48;;;;;;;;;;5090075;28;20056;-86
2022/10/20 11:25:13;;;;;;;1.40;0.95;;;;;;;;;;5048755;28;20122;-86
2022/10/20 11:27:38;;;;;;;1.90;1.30;;;;;;;;;;5089835;28;20036;-85
2022/10/20 11:30:14;;;;;;;2.53;1.15;;;;;;;;;;5089879;28;20032;-86
2022/10/20 11:32:51;;;;;;;1.90;1.20;;;;;;;;;;5090616;28;20584;-86
2022/10/20 11:35:35;;;;;;;4.28;1.60;;;;;;;;;;5087731;28;20107;-84
2022/10/20 11:38:24;;;;;;;2.05;1.42;;;;;;;;;;5082812;28;20024;-83
2022/10/20 11:41:00;;;;;;;1.88;1.30;;;;;;;;;;5087675;28;20089;-82
2022/10/20 11:43:35;;;;;;;1.92;1.50;;;;;;;;;;5087421;28;20065;-82
2022/10/20 11:46:23;;;;;;;1.65;1.27;;;;;;;;;;5086582;28;20031;-83
2022/10/20 11:48:51;;;;;;;2.17;1.25;;;;;;;;;;5089848;28;20016;-85
2022/10/20 11:51:29;;;;;;;1.70;1.15;;;;;;;;;;5091276;28;20030;-85
2022/10/20 11:54:01;;;;;;;4.30;1.40;;;;;;;;;;5090042;28;20527;-87
2022/10/20 11:56:47;;;;;;;2.28;1.35;;;;;;;;;;5090954;28;20065;-86
2022/10/20 11:59:40;;;;;;;1.55;1.00;;;;;;;;;;5090318;28;20107;-86
2022/10/20 12:02:21;;;;;;;2.22;1.48;;;;;;;;;;5089462;28;20058;-85
2022/10/20 12:05:23;;;;;;;2.03;1.27;;;;;;;;;;5088535;28;20030;-85
2022/10/20 12:08:20;;;;;;;2.25;1.10;;;;;;;;;;5089072;28;20048;-85
2022/10/20 12:11:03;;;;;;;1.90;1.33;;;;;;;;;;5088830;28;20028;-85
2022/10/20 12:13:34;;;;;;;2.13;1.27;;;;;;;;;;5089863;28;20024;-87
2022/10/20 12:16:00;;;;;;;1.35;1.10;;;;;;;;;;5090353;28;20043;-88
2022/10/20 12:18:29;;;;;;;2.92;1.90;;;;;;;;;;5091532;28;20055;-86
2022/10/20 12:21:00;;;;;;;2.97;1.67;;;;;;;;;;5089891;28;20027;-85
2022/10/20 12:23:52;;;;;;;1.75;1.23;;;;;;;;;;5089615;28;20039;-87
2022/10/20 12:26:29;;;;;;;1.98;1.38;;;;;;;;;;5091227;28;20016;-87
2022/10/20 12:28:59;;;;;;;1.70;1.00;;;;;;;;;;5091295;28;20020;-86
2022/10/20 12:32:03;;;;;;;2.95;1.65;;;;;;;;;;5090461;28;20408;-89
2022/10/20 12:34:38;;;;;;;1.65;1.50;;;;;;;;;;5090999;28;20103;-86
2022/10/20 12:37:08;;;;;;;1.55;0.98;;;;;;;;;;5089141;28;20133;-86
2022/10/20 12:39:34;;;;;;;2.17;1.67;;;;;;;;;;5090948;28;20034;-84
2022/10/20 12:42:03;;;;;;;1.48;1.20;;;;;;;;;;5090386;28;20122;-86
2022/10/20 12:44:43;;;;;;;1.02;0.93;;;;;;;;;;5087280;28;20024;-87
2022/10/20 12:47:17;;;;;;;1.40;1.08;;;;;;;;;;5088169;28;20035;-86
2022/10/20 12:49:53;;;;;;;1.95;1.20;;;;;;;;;;5089094;28;20543;-87
2022/10/20 12:52:22;;;;;;;2.40;1.10;;;;;;;;;;5090477;28;20055;-87
2022/10/20 12:54:57;;;;;;;1.70;1.20;;;;;;;;;;5090316;28;20111;-85
2022/10/20 12:57:40;;;;;;;1.10;0.85;;;;;;;;;;5086181;28;20039;-87
2022/10/20 13:00:20;;;;;;;1.88;1.05;;;;;;;;;;5091391;28;20024;-87
2022/10/20 13:02:54;;;;;;;;;;;;;;;;;;5091935;28;20074;-87
2022/10/20 13:05:42;;;;;;;1.92;1.27;;;;;;;;;;5092097;28;19996;-88
2022/10/20 13:08:20;;;;;;;2.40;1.20;;;;;;;;;;5089908;28;20084;-86
2022/10/20 13:10:46;;;;;;;1.85;1.35;;;;;;;;;;5090483;28;20028;-88
2022/10/20 13:13:11;;;;;;;1.70;1.35;;;;;;;;;;5094407;28;20463;-88
2022/10/20 13:15:43;;;;;;;1.50;1.00;;;;;;;;;;5095125;28;20320;-88
2022/10/20 13:18:11;;;;;;;1.25;1.15;;;;;;;;;;5095057;28;20027;-87
2022/10/20 13:20:37;;;;;;;1.50;1.00;;;;;;;;;;5095542;28;20027;-88
2022/10/20 13:23:03;;;;;;;1.42;0.95;;;;;;;;;;5092703;28;20055;-89
2022/10/20 13:25:42;;;;;;;1.52;1.23;;;;;;;;;;5093801;28;20039;-88
2022/10/20 13:28:18;;;;;;;1.40;1.17;;;;;;;;;;5095172;28;20042;-86
2022/10/20 13:31:01;;;;;;;3.72;1.88;;;;;;;;;;5088765;28;20031;-87
2022/10/20 13:34:03;;;;;;;1.45;1.08;;;;;;;;;;5091072;28;20023;-85
2022/10/20 13:36:45;;;;;;;1.70;1.08;;;;;;;;;;5085754;28;20141;-85
2022/10/20 13:39:21;;;;;;;2.33;1.38;;;;;;;;;;5110674;28;20107;-86
2022/10/20 13:42:22;;;;;;;1.60;1.02;;;;;;;;;;5090087;28;20029;-86
2022/10/20 13:44:59;;;;;;;1.80;1.23;;;;;;;;;;5092077;28;20024;-86
2022/10/20 13:47:48;;;;;;;1.73;1.33;;;;;;;;;;5095498;28;20027;-86
2022/10/20 13:50:25;;;;;;;2.30;1.65;;;;;;;;;;5093623;28;20028;-85
2022/10/20 13:52:58;;;;;;;1.88;0.95;;;;;;;;;;5093092;28;20032;-84
2022/10/20 13:55:27;;;;;;;1.88;1.40;;;;;;;;;;5091712;28;20074;-84
2022/10/20 13:57:58;;;;;;;1.63;0.97;;;;;;;;;;5093741;28;20134;-85
2022/10/20 14:00:27;;;;;;;2.50;1.27;;;;;;;;;;5093280;28;20028;-85
2022/10/20 14:02:59;;;;;;;2.00;1.15;;;;;;;;;;5093752;28;20129;-85
2022/10/20 14:05:26;;;;;;;2.15;1.00;;;;;;;;;;5092700;28;20331;-85
2022/10/20 14:07:52;;;;;;;1.02;0.77;;;;;;;;;;5093204;28;20085;-86
2022/10/20 14:10:45;;;;;;;1.83;1.05;;;;;;;;;;5091582;28;20028;-86
2022/10/20 14:13:17;;;;;;;1.35;1.00;;;;;;;;;;5089863;28;20036;-86
2022/10/20 14:15:48;;;;;;;1.75;1.20;;;;;;;;;;5094495;28;20049;-85
2022/10/20 14:18:20;;;;;;;2.53;1.45;;;;;;;;;;5092236;28;20039;-87
2022/10/20 14:20:57;;;;;;;3.67;1.60;;;;;;;;;;5092368;28;20115;-85
2022/10/20 14:23:24;;;;;;;1.92;1.33;;;;;;;;;;5092118;28;20027;-86
2022/10/20 14:25:51;;;;;;;2.42;1.40;;;;;;;;;;5093556;28;20024;-87
2022/10/20 14:28:19;;;;;;;1.30;0.93;;;;;;;;;;5090032;28;20361;-86
2022/10/20 14:30:49;;;;;;;1.35;1.10;;;;;;;;;;5092986;28;20012;-86
2022/10/20 14:33:15;;;;;;;;;;;;;;;;;;5090914;28;20533;-86
2022/10/20 14:35:44;;;;;;;1.02;0.93;;;;;;;;;;5092358;28;19916;-87
2022/10/20 14:38:29;;;;;;;6.70;1.67;;;;;;;;;;5091404;28;20031;-87
2022/10/20 14:40:56;;;;;;;1.42;0.90;;;;;;;;;;5091527;28;20032;-85
2022/10/20 14:43:41;;;;;;;1.23;0.98;;;;;;;;;;5089558;28;20024;-84
2022/10/20 14:46:10;;;;;;;2.00;1.35;;;;;;;;;;5089973;28;20028;-86
2022/10/20 14:48:47;;;;;;;1.67;1.15;;;;;;;;;;5090261;28;20111;-87
2022/10/20 14:51:54;;;;;;;1.77;0.95;;;;;;;;;;5091141;28;20495;-85
2022/10/20 14:54:19;;;;;;;1.15;1.02;;;;;;;;;;5087941;28;20028;-84
2022/10/20 14:56:47;;;;;;;1.25;1.05;;;;;;;;;;5091004;28;20476;-85
2022/10/20 14:59:16;;;;;;;1.08;0.93;;;;;;;;;;5088242;28;20085;-84
2022/10/20 15:02:10;;;;;;;4.03;1.42;;;;;;;;;;5087411;28;20016;-86
2022/10/20 15:04:40;;;;;;;1.58;1.17;;;;;;;;;;5091892;28;20068;-85
2022/10/20 15:07:11;;;;;;;1.55;1.20;;;;;;;;;;5091485;28;20039;-85
2022/10/20 15:09:43;;;;;;;1.35;1.00;;;;;;;;;;5090751;28;20036;-84
2022/10/20 15:12:21;;;;;;;1.30;1.20;;;;;;;;;;5090314;28;20035;-85
2022/10/20 15:14:52;;;;;;;1.85;1.52;;;;;;;;;;5091144;28;20451;-85
2022/10/20 15:17:45;;;;;;;0.85;0.70;;;;;;;;;;5090831;28;20034;-85
2022/10/20 15:20:28;;;;;;;1.88;1.15;;;;;;;;;;5090792;28;20034;-84
2022/10/20 15:22:55;;;;;;;1.30;0.98;;;;;;;;;;5089274;28;20044;-85
2022/10/20 15:25:20;;;;;;;1.20;0.88;;;;;;;;;;5091781;28;20039;-85
2022/10/20 15:27:46;;;;;;;1.88;1.40;;;;;;;;;;5091057;28;20111;-85
2022/10/20 15:30:16;;;;;;;1.02;0.82;;;;;;;;;;5092019;28;20027;-86